This is the latest recevied weather packets stored in our database for station/object HA9OZD-17. If no packets are shown the sender has not sent any weather packets the latest 10 day(s).
| Time | Temp. | Humidity | Pressure | Rain* | Wind** | Luminosity | Snow |
|---|---|---|---|---|---|---|---|
| 1777869654 | 12.78° C | 36% | 896 hPa | - | - | - | - |
| 1777866053 | 12.22° C | 38% | 896 hPa | - | - | - | - |
| 1777862452 | 12.22° C | 38% | 896 hPa | - | - | - | - |
| 1777858867 | 12.78° C | 37% | 896 hPa | - | - | - | - |
| 1777855266 | 13.33° C | 36% | 896 hPa | - | - | - | - |
| 1777851665 | 13.33° C | 35% | 896 hPa | - | - | - | - |
| 1777848064 | 13.89° C | 34% | 896 hPa | - | - | - | - |
| 1777844462 | 14.44° C | 33% | 897 hPa | - | - | - | - |
| 1777840861 | 15° C | 32% | 897 hPa | - | - | - | - |
| 1777837260 | 16.67° C | 29% | 897 hPa | - | - | - | - |
| 1777833659 | 18.33° C | 26% | 896 hPa | - | - | - | - |
| 1777830057 | 22.78° C | 20% | 896 hPa | - | - | - | - |
| 1777826456 | 25° C | 17% | 896 hPa | - | - | - | - |
| 1777822855 | 25.56° C | 16% | 897 hPa | - | - | - | - |
| 1777819254 | 26.67° C | 15% | 897 hPa | - | - | - | - |
| 1777815653 | 29.44° C | 12% | 897 hPa | - | - | - | - |
| 1777812051 | 31.67° C | 11% | 898 hPa | - | - | - | - |
| 1777808450 | 23.89° C | 18% | 898 hPa | - | - | - | - |
| 1777804849 | 16.11° C | 30% | 898 hPa | - | - | - | - |
| 1777801248 | 15° C | 32% | 899 hPa | - | - | - | - |
| 1777797647 | 13.89° C | 34% | 899 hPa | - | - | - | - |
| 1777794045 | 12.78° C | 36% | 899 hPa | - | - | - | - |
| 1777790444 | 11.67° C | 38% | 898 hPa | - | - | - | - |
| 1777786843 | 11.67° C | 38% | 898 hPa | - | - | - | - |
| 1777783242 | 11.11° C | 39% | 898 hPa | - | - | - | - |
* Rain since midnight (hover to see other rain measurements)
** Current wind speed in m/s (hover to see current wind gust speed)